Tasman — ZDKI2 — position and weather

sailwx.info

Track history (hours):
 
Tides and Currents Weather Stations Pressure Air Temp Water Temp Dewpoint Dewpoint Depression Visibility Wind Speed Wind Dir Waves Ship Positions

Tasman

Last reported at 2015-Jan-29 15:33 UTC. Time now 2015-Jan-29 16:27 UTC.
Position N 51°32' E 002°20'.

Length 90 m; draft 4 m.

Type: Ship. MMSI: 23617000.

Date/timePositionNaut miles runAvg speedWind from/ knotsBaromVisibWave heightAir tempDewpointWater temp
2015-Jan-29 15:33N 51°32' E 002°20'10 9.4
2015-Jan-29 14:32N 51°24' E 002°12'10 9.8
2015-Jan-29 13:33N 51°15' E 002°04'1010.0
2015-Jan-29 12:33N 51°09' E 001°52'1010.2
2015-Jan-29 11:33N 51°02' E 001°41'  
2015-Jan-25 18:25N 39°05' W 009°50'1010.9
2015-Jan-25 17:30N 38°55' W 009°50'1111.1
2015-Jan-25 16:33N 38°45' W 009°50'1110.7
2015-Jan-25 15:33N 38°34' W 009°47'1010.6
2015-Jan-25 14:33N 38°24' W 009°43'1110.7
2015-Jan-25 13:31N 38°13' W 009°40'1110.9
2015-Jan-25 12:33N 38°03' W 009°38'1110.9
2015-Jan-25 11:33N 37°52' W 009°35'1111.0
2015-Jan-25 10:31N 37°41' W 009°32'1210.9
2015-Jan-25 09:28N 37°30' W 009°29'1111.2
2015-Jan-25 08:31N 37°20' W 009°26'1111.0
2015-Jan-25 07:33N 37°09' W 009°23'2210.7
2015-Jan-25 05:28N 36°49' W 009°12'1010.9
2015-Jan-25 04:33N 36°44' W 009°01'1111.2
2015-Jan-25 03:33N 36°41' W 008°47'1111.4
2015-Jan-25 02:33N 36°39' W 008°34'15811.3
2015-Jan-24 12:32N 35°60' W 005°24'8 7.7
2015-Jan-24 11:30N 35°59' W 005°14'  
Track history (hours):
 
Tides and Currents Weather Stations Pressure Air Temp Water Temp Dewpoint Dewpoint Depression Visibility Wind Speed Wind Dir Waves Ship Positions

Tasman

Last reported at 2015-Jan-29 15:33 UTC. Time now 2015-Jan-29 16:27 UTC.
Position N 51°32' E 002°20'.

Length 90 m; draft 4 m.

Type: Ship. MMSI: 23617000.

Date/timePositionNaut miles runAvg speedWind from/ knotsBaromVisibWave heightAir tempDewpointWater temp
2015-Jan-29 15:33N 51°32' E 002°20'10 9.4
2015-Jan-29 14:32N 51°24' E 002°12'10 9.8
2015-Jan-29 13:33N 51°15' E 002°04'1010.0
2015-Jan-29 12:33N 51°09' E 001°52'1010.2
2015-Jan-29 11:33N 51°02' E 001°41'  
2015-Jan-25 18:25N 39°05' W 009°50'1010.9
2015-Jan-25 17:30N 38°55' W 009°50'1111.1
2015-Jan-25 16:33N 38°45' W 009°50'1110.7
2015-Jan-25 15:33N 38°34' W 009°47'1010.6
2015-Jan-25 14:33N 38°24' W 009°43'1110.7
2015-Jan-25 13:31N 38°13' W 009°40'1110.9
2015-Jan-25 12:33N 38°03' W 009°38'1110.9
2015-Jan-25 11:33N 37°52' W 009°35'1111.0
2015-Jan-25 10:31N 37°41' W 009°32'1210.9
2015-Jan-25 09:28N 37°30' W 009°29'1111.2
2015-Jan-25 08:31N 37°20' W 009°26'1111.0
2015-Jan-25 07:33N 37°09' W 009°23'2210.7
2015-Jan-25 05:28N 36°49' W 009°12'1010.9
2015-Jan-25 04:33N 36°44' W 009°01'1111.2
2015-Jan-25 03:33N 36°41' W 008°47'1111.4
2015-Jan-25 02:33N 36°39' W 008°34'15811.3
2015-Jan-24 12:32N 35°60' W 005°24'8 7.7
2015-Jan-24 11:30N 35°59' W 005°14'  

Dump ship's entire track history